To NAV CANADA Home Page Login to a new session Search on AWWS site Disclaimer Vers la page française équivalente Tips FAQ What's new on the site To the Forecasts and Observations / NOTAM section To "File a Flight Plan" website Publications and other links Update of the User's profile FIC Telephone Numbers My Weather Data Folder Route Weather Data Regional Weather Data Local Weather Data To the Forecasts and Observations / NOTAM section
Request Generated 10/19/2018 at 16:37:20 UTC . Weather information available at that time is displayed.

METAR/TAF

HALL BEACH/NU    (show WxCam)

METAR CYUX 191600Z 32010KT 3SM -SN OVC036 M11/M12 A2969 RMK SC8 SLP058=
METAR CYUX 191600Z AUTO 32010KT 3SM -SN OVC036 M11/M12 A2969 RMK SLP058=
METAR CYUX 191500Z CCA 33007KT 5SM -SN OVC038 M11/M13 A2969 RMK SC8 SLP057=
METAR CYUX 191500Z 33007KT 5SM +SHPL OVC038 M11/M13 A2969 RMK SC8 SLP057=
METAR CYUX 191400Z 32008KT 3SM -SN OVC037 M11/M12 A2969 RMK SC8 SLP055=

TAF CYUX 191238Z 1913/2001 33008KT P6SM -SN SCT020 OVC040 TEMPO
1913/2001 2SM -SN OVC020
BECMG 1919/1921 33015KT
RMK NXT FCST BY 191900Z=
Your time UTC time
Weather data provided by Environment Canada and NAV CANADA